createdAt,value
2023-10-26T00:00:19.720Z,13.88
2023-10-26T00:02:47.503Z,13.85
2023-10-26T00:05:15.299Z,13.82
2023-10-26T00:07:42.183Z,13.90
2023-10-26T00:10:09.308Z,13.80
2023-10-26T00:12:36.294Z,13.82
2023-10-26T00:15:03.895Z,13.84
2023-10-26T00:17:31.059Z,13.85
2023-10-26T00:19:58.382Z,13.75
2023-10-26T00:22:25.658Z,13.71
2023-10-26T00:24:52.680Z,13.73
2023-10-26T00:27:19.638Z,13.67
2023-10-26T00:29:48.623Z,13.57
2023-10-26T00:32:15.745Z,13.60
2023-10-26T00:34:43.870Z,13.55
2023-10-26T00:37:11.276Z,13.43
2023-10-26T00:39:38.236Z,13.36
2023-10-26T00:42:05.480Z,13.46
2023-10-26T00:44:32.472Z,13.43
2023-10-26T00:46:59.552Z,13.34
2023-10-26T00:49:26.596Z,13.35
2023-10-26T00:52:01.244Z,13.35
2023-10-26T00:54:30.239Z,13.51
2023-10-26T00:56:58.217Z,13.47
2023-10-26T00:59:30.253Z,13.47
2023-10-26T01:01:58.813Z,13.37
2023-10-26T01:04:25.799Z,13.54
2023-10-26T01:06:52.732Z,13.48
2023-10-26T01:09:21.200Z,13.50
2023-10-26T01:11:48.969Z,13.55
2023-10-26T01:14:16.841Z,13.54
2023-10-26T01:16:43.708Z,13.38
2023-10-26T01:19:10.877Z,13.42
2023-10-26T01:21:51.822Z,13.55
2023-10-26T01:24:20.008Z,13.53
2023-10-26T01:26:48.793Z,13.54
2023-10-26T01:29:15.890Z,13.60
2023-10-26T01:31:42.792Z,13.63
2023-10-26T01:34:09.945Z,13.52
2023-10-26T01:36:36.874Z,13.59
2023-10-26T01:39:05.384Z,13.62
2023-10-26T01:41:35.556Z,13.66
2023-10-26T01:44:03.139Z,13.67
2023-10-26T01:46:30.119Z,13.64
2023-10-26T01:48:58.012Z,13.66
2023-10-26T01:51:25.089Z,13.66
2023-10-26T01:53:53.826Z,13.62
2023-10-26T01:56:20.717Z,13.50
2023-10-26T01:58:49.068Z,13.60
2023-10-26T02:01:16.466Z,13.53
2023-10-26T02:03:43.467Z,13.47
2023-10-26T02:06:10.815Z,13.51
2023-10-26T02:08:37.945Z,13.53
2023-10-26T02:11:05.270Z,13.47
2023-10-26T02:13:32.229Z,13.52
2023-10-26T02:16:02.640Z,13.46
2023-10-26T02:18:31.206Z,13.43
2023-10-26T02:21:00.405Z,13.39
2023-10-26T02:23:28.531Z,13.33
2023-10-26T02:25:55.535Z,13.38
2023-10-26T02:28:22.654Z,13.36
2023-10-26T02:30:53.109Z,13.26
2023-10-26T02:33:20.423Z,13.33
2023-10-26T02:35:50.662Z,13.27
2023-10-26T02:38:17.654Z,13.25
2023-10-26T02:40:44.560Z,13.13
2023-10-26T02:43:11.555Z,13.16
2023-10-26T02:45:38.433Z,13.14
2023-10-26T02:48:05.612Z,13.12
2023-10-26T02:50:33.797Z,13.08
2023-10-26T02:53:01.958Z,13.05
2023-10-26T02:55:28.962Z,12.94
2023-10-26T02:57:57.801Z,13.00
2023-10-26T03:00:29.097Z,12.95
2023-10-26T03:02:57.336Z,12.89
2023-10-26T03:05:26.096Z,12.81
2023-10-26T03:07:53.754Z,12.88
2023-10-26T03:10:21.404Z,12.83
2023-10-26T03:12:50.072Z,12.84
2023-10-26T03:15:18.017Z,12.73
2023-10-26T03:17:45.465Z,12.77
2023-10-26T03:20:13.059Z,12.71
2023-10-26T03:22:40.222Z,12.63
2023-10-26T03:25:08.328Z,12.57
2023-10-26T03:27:38.185Z,12.66
2023-10-26T03:30:08.312Z,12.42
2023-10-26T03:32:35.357Z,12.61
2023-10-26T03:35:02.594Z,12.60
2023-10-26T03:37:29.770Z,12.59
2023-10-26T03:39:57.022Z,12.48
2023-10-26T03:42:24.001Z,12.46
2023-10-26T03:44:51.333Z,12.44
2023-10-26T03:47:19.958Z,12.48
2023-10-26T03:49:47.577Z,12.46
2023-10-26T03:52:14.431Z,12.30
2023-10-26T03:54:42.755Z,12.39
2023-10-26T03:57:09.939Z,12.29
2023-10-26T03:59:36.858Z,12.32
2023-10-26T04:02:04.260Z,12.23
2023-10-26T04:04:32.454Z,12.30
2023-10-26T04:06:59.350Z,12.30
2023-10-26T04:09:26.391Z,12.22
2023-10-26T04:11:54.852Z,12.20
2023-10-26T04:14:21.742Z,12.14
2023-10-26T04:16:50.956Z,12.17
2023-10-26T04:19:17.837Z,12.16
2023-10-26T04:21:46.081Z,12.16
2023-10-26T04:24:12.969Z,12.11
2023-10-26T04:26:40.062Z,12.09
2023-10-26T04:29:08.242Z,11.70
2023-10-26T04:31:36.364Z,11.88
2023-10-26T04:34:03.337Z,11.92
2023-10-26T04:36:31.044Z,11.93
2023-10-26T04:38:58.167Z,11.89
2023-10-26T04:41:25.076Z,11.96
2023-10-26T04:43:52.011Z,11.90
2023-10-26T04:46:19.347Z,12.00
2023-10-26T04:48:46.431Z,11.91
2023-10-26T04:51:13.493Z,11.96
2023-10-26T04:53:40.535Z,12.02
2023-10-26T04:56:07.672Z,11.94
2023-10-26T04:58:34.792Z,12.01
2023-10-26T05:01:02.510Z,11.97
2023-10-26T05:03:29.609Z,11.92
2023-10-26T05:05:56.864Z,11.94
2023-10-26T05:08:24.076Z,11.95
2023-10-26T05:10:52.542Z,11.93
2023-10-26T05:13:20.451Z,11.95
2023-10-26T05:15:48.126Z,11.54
2023-10-26T05:18:15.143Z,11.79
2023-10-26T05:20:48.115Z,11.76
2023-10-26T05:23:15.110Z,11.79
2023-10-26T05:25:42.266Z,11.80
2023-10-26T05:28:10.385Z,11.79
2023-10-26T05:30:37.351Z,11.79
2023-10-26T05:33:05.209Z,11.78
2023-10-26T05:35:32.440Z,11.89
2023-10-26T05:37:59.427Z,11.88
2023-10-26T05:40:26.345Z,11.88
2023-10-26T05:42:53.252Z,11.78
2023-10-26T05:45:20.182Z,11.83
2023-10-26T05:47:53.778Z,11.88
2023-10-26T05:50:22.075Z,11.83
2023-10-26T05:52:49.213Z,11.86
2023-10-26T05:55:16.495Z,11.89
2023-10-26T05:57:44.849Z,11.89
2023-10-26T06:00:12.487Z,11.85
2023-10-26T06:02:39.493Z,11.88
2023-10-26T06:05:06.728Z,11.88
2023-10-26T06:07:35.209Z,11.62
2023-10-26T06:10:04.796Z,11.76
2023-10-26T06:12:31.786Z,11.85
2023-10-26T06:14:59.083Z,11.89
2023-10-26T06:17:26.172Z,11.84
2023-10-26T06:19:53.418Z,11.84
2023-10-26T06:22:20.292Z,11.86
2023-10-26T06:24:48.272Z,11.90
2023-10-26T06:27:16.568Z,11.92
2023-10-26T06:29:46.811Z,11.90
2023-10-26T06:32:13.733Z,11.97
2023-10-26T06:34:40.698Z,11.87
2023-10-26T06:37:07.724Z,11.94
2023-10-26T06:39:34.857Z,12.03
2023-10-26T06:42:01.959Z,12.02
2023-10-26T06:44:28.929Z,12.05
2023-10-26T06:46:57.913Z,12.02
2023-10-26T06:49:30.114Z,11.89
2023-10-26T06:51:58.552Z,12.08
2023-10-26T06:54:25.603Z,12.10
2023-10-26T06:56:52.694Z,12.01
2023-10-26T06:59:20.424Z,11.90
2023-10-26T07:02:09.033Z,12.02
2023-10-26T07:04:36.962Z,11.99
2023-10-26T07:07:07.228Z,12.07
2023-10-26T07:09:34.568Z,12.04
2023-10-26T07:12:02.263Z,12.15
2023-10-26T07:14:30.332Z,12.07
2023-10-26T07:16:58.488Z,12.18
2023-10-26T07:19:25.363Z,12.13
2023-10-26T07:21:52.302Z,12.19
2023-10-26T07:24:19.202Z,12.19
2023-10-26T07:26:51.209Z,12.25
2023-10-26T07:29:18.946Z,12.26
2023-10-26T07:31:50.378Z,12.24
2023-10-26T07:34:20.042Z,12.33
2023-10-26T07:36:47.172Z,12.27
2023-10-26T07:39:45.493Z,12.37
2023-10-26T07:42:07.132Z,12.38
2023-10-26T07:44:35.697Z,12.41
2023-10-26T07:47:05.925Z,12.39
2023-10-26T07:49:33.443Z,12.44
2023-10-26T07:52:00.630Z,12.44
2023-10-26T07:54:27.971Z,12.41
2023-10-26T07:56:55.015Z,12.39
2023-10-26T07:59:21.945Z,12.44
2023-10-26T08:01:49.396Z,12.49
2023-10-26T08:04:16.972Z,12.54
2023-10-26T08:06:44.071Z,12.49
2023-10-26T08:09:11.096Z,12.53
2023-10-26T08:11:38.732Z,12.56
2023-10-26T08:14:45.869Z,12.59
2023-10-26T08:16:53.844Z,12.63
2023-10-26T08:19:22.848Z,12.49
2023-10-26T08:21:49.888Z,12.49
2023-10-26T08:24:17.376Z,12.65
2023-10-26T08:26:44.342Z,12.63
2023-10-26T08:29:18.465Z,12.68
2023-10-26T08:31:52.560Z,12.68
2023-10-26T08:34:19.584Z,12.63
2023-10-26T08:37:02.113Z,12.67
2023-10-26T08:39:37.169Z,12.68
2023-10-26T08:42:04.781Z,12.66
2023-10-26T08:44:34.769Z,12.62
2023-10-26T08:47:04.908Z,12.69
2023-10-26T08:49:33.435Z,12.75
2023-10-26T08:52:03.393Z,12.69
2023-10-26T08:54:31.964Z,12.82
2023-10-26T08:57:07.854Z,12.80
2023-10-26T08:59:36.927Z,12.79
2023-10-26T09:02:04.181Z,12.81
2023-10-26T09:04:32.661Z,12.76
2023-10-26T09:07:00.163Z,12.79
2023-10-26T09:09:43.851Z,12.77
2023-10-26T09:12:11.259Z,12.74
2023-10-26T09:17:36.570Z,12.81
2023-10-26T09:20:19.806Z,12.84
2023-10-26T09:22:50.310Z,12.79
2023-10-26T09:25:19.025Z,12.86
2023-10-26T09:27:47.553Z,12.82
2023-10-26T09:30:30.072Z,12.69
2023-10-26T09:33:06.111Z,12.80
2023-10-26T09:35:36.317Z,12.88
2023-10-26T09:38:04.706Z,12.97
2023-10-26T09:40:32.362Z,12.98
2023-10-26T09:42:59.820Z,12.98
2023-10-26T09:45:28.844Z,13.10
2023-10-26T09:47:56.325Z,13.13
2023-10-26T09:50:25.188Z,13.15
2023-10-26T09:52:57.105Z,13.04
2023-10-26T09:55:30.340Z,13.25
2023-10-26T09:58:13.785Z,13.18
2023-10-26T10:00:55.785Z,12.87
2023-10-26T10:03:22.962Z,12.98
2023-10-26T10:05:51.142Z,13.07
2023-10-26T10:09:00.787Z,13.13
2023-10-26T10:11:28.005Z,13.13
2023-10-26T10:13:55.246Z,13.12
2023-10-26T10:16:52.413Z,13.19
2023-10-26T10:19:21.345Z,13.23
2023-10-26T10:21:49.641Z,13.19
2023-10-26T10:24:38.908Z,13.27
2023-10-26T10:27:14.114Z,13.29
2023-10-26T10:29:41.439Z,13.31
2023-10-26T10:32:08.764Z,13.30
2023-10-26T10:34:46.626Z,13.27
2023-10-26T10:37:24.357Z,13.25
2023-10-26T10:40:14.094Z,13.22
2023-10-26T10:42:49.942Z,13.27
2023-10-26T10:45:20.391Z,13.22
2023-10-26T10:47:52.113Z,13.23
2023-10-26T10:50:28.750Z,13.16
2023-10-26T10:52:56.537Z,13.21
2023-10-26T10:55:28.161Z,13.25
2023-10-26T10:58:04.204Z,13.25
2023-10-26T11:00:50.477Z,13.28
2023-10-26T11:03:24.456Z,13.32
2023-10-26T11:05:51.563Z,13.25
2023-10-26T11:08:22.608Z,13.35
2023-10-26T11:10:50.312Z,13.43
2023-10-26T11:13:26.109Z,13.46
2023-10-26T11:15:55.087Z,13.35
2023-10-26T11:18:25.327Z,13.45
2023-10-26T11:20:52.387Z,13.45
2023-10-26T11:23:24.334Z,13.42
2023-10-26T11:25:53.438Z,13.49
2023-10-26T11:28:38.152Z,13.45
2023-10-26T11:31:06.190Z,13.52
2023-10-26T11:33:40.605Z,13.51
2023-10-26T11:36:13.906Z,13.50
2023-10-26T11:38:49.551Z,13.56
2023-10-26T11:41:23.575Z,13.48
2023-10-26T11:43:54.017Z,13.58
2023-10-26T11:46:36.441Z,13.52
2023-10-26T11:49:06.029Z,13.58
2023-10-26T11:51:42.264Z,13.61
2023-10-26T11:54:14.784Z,13.60
2023-10-26T11:56:41.849Z,13.56
2023-10-26T11:59:08.802Z,13.57
2023-10-26T12:01:36.934Z,13.54
2023-10-26T12:04:03.967Z,13.49
2023-10-26T12:06:32.016Z,13.52
2023-10-26T12:08:58.936Z,13.60
2023-10-26T12:11:26.134Z,13.62
2023-10-26T12:13:53.184Z,13.64
2023-10-26T12:16:20.299Z,13.67
2023-10-26T12:18:47.522Z,13.72
2023-10-26T12:21:14.491Z,13.76
2023-10-26T12:23:41.632Z,13.72
2023-10-26T12:26:09.003Z,13.70
2023-10-26T12:28:35.990Z,13.92
2023-10-26T12:31:03.662Z,13.99
2023-10-26T12:33:30.785Z,13.95
2023-10-26T12:35:57.766Z,13.96
2023-10-26T12:38:24.801Z,13.88
2023-10-26T12:40:52.862Z,13.92
2023-10-26T12:43:23.368Z,13.89
2023-10-26T12:45:50.419Z,13.97
2023-10-26T12:48:18.405Z,13.97
2023-10-26T12:50:46.160Z,14.02
2023-10-26T12:53:16.098Z,13.98
2023-10-26T12:55:43.896Z,14.08
2023-10-26T12:58:17.529Z,14.11
2023-10-26T13:00:46.599Z,14.10
2023-10-26T13:03:17.675Z,14.10
2023-10-26T13:05:44.792Z,14.15
2023-10-26T13:08:14.367Z,14.17
2023-10-26T13:10:41.344Z,14.26
2023-10-26T13:13:09.421Z,14.27
2023-10-26T13:15:36.681Z,14.28
2023-10-26T13:18:04.108Z,14.27
2023-10-26T13:20:34.283Z,14.31
2023-10-26T13:23:01.482Z,14.30
2023-10-26T13:25:29.447Z,14.34
2023-10-26T13:27:56.612Z,14.22
2023-10-26T13:30:24.452Z,14.32
2023-10-26T13:32:51.800Z,14.32
2023-10-26T13:35:19.323Z,14.32
2023-10-26T13:37:47.658Z,14.38
2023-10-26T13:40:14.902Z,14.41
2023-10-26T13:42:42.033Z,14.42
2023-10-26T13:45:09.740Z,14.40
2023-10-26T13:47:36.680Z,14.47
2023-10-26T13:50:04.336Z,14.51
2023-10-26T13:52:31.303Z,14.52
2023-10-26T13:54:59.152Z,14.53
2023-10-26T13:57:30.314Z,14.44
2023-10-26T13:59:58.911Z,14.50
2023-10-26T14:02:27.179Z,14.49
2023-10-26T14:04:54.583Z,14.49
2023-10-26T14:07:22.175Z,14.50
2023-10-26T14:09:50.283Z,14.35
2023-10-26T14:12:19.887Z,14.50
2023-10-26T14:14:46.999Z,14.49
2023-10-26T14:17:14.694Z,14.53
2023-10-26T14:19:43.173Z,14.55
2023-10-26T14:22:11.617Z,14.56
2023-10-26T14:24:40.141Z,14.63
2023-10-26T14:27:07.035Z,14.55
2023-10-26T14:29:34.256Z,14.54
2023-10-26T14:32:01.184Z,14.66
2023-10-26T14:34:28.490Z,14.63
2023-10-26T14:36:56.710Z,14.63
2023-10-26T14:39:23.627Z,14.60
2023-10-26T14:41:51.204Z,14.67
2023-10-26T14:44:18.134Z,14.52
2023-10-26T14:46:45.167Z,14.75
2023-10-26T14:49:12.530Z,14.73
2023-10-26T14:51:44.012Z,14.81
2023-10-26T14:54:11.145Z,14.84
2023-10-26T14:56:38.171Z,14.86
2023-10-26T14:59:07.110Z,14.88
2023-10-26T15:01:34.893Z,14.88
2023-10-26T15:04:02.846Z,14.82
2023-10-26T15:06:29.880Z,14.96
2023-10-26T15:08:57.645Z,14.97
2023-10-26T15:11:25.396Z,14.91
2023-10-26T15:13:56.116Z,14.97
2023-10-26T15:16:23.465Z,14.95
2023-10-26T15:18:50.496Z,14.92
2023-10-26T15:21:17.573Z,14.77
2023-10-26T15:23:47.737Z,14.87
2023-10-26T15:26:16.652Z,14.96
2023-10-26T15:28:43.892Z,14.92
2023-10-26T15:31:13.145Z,14.95
2023-10-26T15:33:41.629Z,14.85
2023-10-26T15:36:12.623Z,14.93
2023-10-26T15:38:42.328Z,14.92
2023-10-26T15:41:10.236Z,14.90
2023-10-26T15:43:37.118Z,14.89
2023-10-26T15:46:05.161Z,14.89
2023-10-26T15:49:34.291Z,14.89
2023-10-26T15:51:23.596Z,14.79
2023-10-26T15:53:50.610Z,14.92
2023-10-26T15:56:17.684Z,14.86
2023-10-26T15:58:44.950Z,14.82
2023-10-26T16:01:12.229Z,14.72
2023-10-26T16:03:39.397Z,14.79
2023-10-26T16:06:13.336Z,14.73
2023-10-26T16:08:41.525Z,14.76
2023-10-26T16:11:13.569Z,14.76
2023-10-26T16:13:40.637Z,14.74
2023-10-26T16:16:08.012Z,14.75
2023-10-26T16:18:36.495Z,14.74
2023-10-26T16:21:03.684Z,14.62
2023-10-26T16:23:30.975Z,14.77
2023-10-26T16:25:59.399Z,14.77
2023-10-26T16:28:26.843Z,14.66
2023-10-26T16:30:59.539Z,14.71
2023-10-26T16:33:28.448Z,14.65
2023-10-26T16:35:57.760Z,14.66
2023-10-26T16:38:26.599Z,14.64
2023-10-26T16:40:53.682Z,14.65
2023-10-26T16:43:23.000Z,14.68
2023-10-26T16:45:50.245Z,14.65
2023-10-26T16:48:20.706Z,14.68
2023-10-26T16:50:49.694Z,14.58
2023-10-26T16:53:29.818Z,14.55
2023-10-26T16:56:03.497Z,14.57
2023-10-26T16:58:35.074Z,14.61
2023-10-26T17:01:10.609Z,14.59
2023-10-26T17:03:38.487Z,14.62
2023-10-26T17:06:06.036Z,14.53
2023-10-26T17:08:33.105Z,14.50
2023-10-26T17:11:00.126Z,14.53
2023-10-26T17:13:27.037Z,14.51
2023-10-26T17:15:54.598Z,14.49
2023-10-26T17:18:23.330Z,14.49
2023-10-26T17:20:50.397Z,14.49
2023-10-26T17:23:17.579Z,14.60
2023-10-26T17:25:44.723Z,14.54
2023-10-26T17:28:11.975Z,14.58
2023-10-26T17:30:40.249Z,14.51
2023-10-26T17:33:11.717Z,14.46
2023-10-26T17:35:48.806Z,14.45
2023-10-26T17:38:16.233Z,14.35
2023-10-26T17:40:46.098Z,14.19
2023-10-26T17:43:14.401Z,14.41
2023-10-26T17:45:41.654Z,14.50
2023-10-26T17:48:10.711Z,14.53
2023-10-26T17:50:41.742Z,14.45
2023-10-26T17:53:14.034Z,14.39
2023-10-26T17:55:44.325Z,14.33
2023-10-26T17:58:11.496Z,14.37
2023-10-26T18:00:38.432Z,14.49
2023-10-26T18:03:05.635Z,14.48
2023-10-26T18:05:35.328Z,14.52
2023-10-26T18:08:02.359Z,14.51
2023-10-26T18:10:30.231Z,14.46
2023-10-26T18:12:57.598Z,14.50
2023-10-26T18:15:24.531Z,14.44
2023-10-26T18:17:51.470Z,14.34
2023-10-26T18:20:23.125Z,14.37
2023-10-26T18:22:50.114Z,14.34
2023-10-26T18:28:12.235Z,14.12
2023-10-26T18:30:39.223Z,14.12
2023-10-26T18:33:06.220Z,14.03
2023-10-26T18:35:33.633Z,14.16
2023-10-26T18:38:01.602Z,14.07
2023-10-26T18:40:28.587Z,14.13
2023-10-26T18:42:55.608Z,14.06
2023-10-26T18:45:22.642Z,14.04
2023-10-26T18:47:51.739Z,13.91
2023-10-26T18:50:18.778Z,13.96
2023-10-26T18:52:45.699Z,13.89
2023-10-26T18:55:12.722Z,14.01
2023-10-26T18:57:39.743Z,14.15
2023-10-26T19:00:09.042Z,14.15
2023-10-26T19:02:36.540Z,14.18
2023-10-26T19:05:06.077Z,14.11
2023-10-26T19:07:33.012Z,14.13
2023-10-26T19:10:00.025Z,14.09
2023-10-26T19:12:27.155Z,14.12
2023-10-26T19:14:54.423Z,14.17
2023-10-26T19:17:21.483Z,14.20
2023-10-26T19:19:52.138Z,14.32
2023-10-26T19:22:19.037Z,14.31
2023-10-26T19:24:48.648Z,14.30
2023-10-26T19:27:16.385Z,14.35
2023-10-26T19:29:43.545Z,14.30
2023-10-26T19:32:10.588Z,14.38
2023-10-26T19:34:37.773Z,14.40
2023-10-26T19:37:04.874Z,14.35
2023-10-26T19:39:33.667Z,14.40
2023-10-26T19:42:00.604Z,14.32
2023-10-26T19:44:27.497Z,14.44
2023-10-26T19:46:54.563Z,14.42
2023-10-26T19:49:21.741Z,14.40
2023-10-26T19:51:48.766Z,14.31
2023-10-26T19:54:15.809Z,14.41
2023-10-26T19:56:47.568Z,14.35
2023-10-26T19:59:15.831Z,14.39
2023-10-26T20:04:41.883Z,14.32
2023-10-26T20:07:09.035Z,14.20
2023-10-26T20:09:37.076Z,14.16
2023-10-26T20:12:04.574Z,14.21
2023-10-26T20:14:31.474Z,14.17
2023-10-26T20:16:58.820Z,14.18
2023-10-26T20:19:25.728Z,14.12
2023-10-26T20:21:57.970Z,14.16
2023-10-26T20:24:27.818Z,14.15
2023-10-26T20:26:56.485Z,14.06
2023-10-26T20:29:23.714Z,14.06
2023-10-26T20:31:51.146Z,14.03
2023-10-26T20:34:18.266Z,14.06
2023-10-26T20:36:52.448Z,14.03
2023-10-26T20:39:19.558Z,13.99
2023-10-26T20:41:46.699Z,14.01
2023-10-26T20:44:16.923Z,14.06
2023-10-26T20:46:44.467Z,14.06
2023-10-26T20:49:14.082Z,14.00
2023-10-26T20:51:45.132Z,14.05
2023-10-26T20:54:25.255Z,13.94
2023-10-26T20:56:55.691Z,13.95
2023-10-26T20:59:23.045Z,13.95
2023-10-26T21:01:50.118Z,13.95
2023-10-26T21:04:17.128Z,13.97
2023-10-26T21:06:48.706Z,13.92
2023-10-26T21:09:15.870Z,13.97
2023-10-26T21:11:42.834Z,13.95
2023-10-26T21:14:12.089Z,13.93
2023-10-26T21:16:40.027Z,13.94
2023-10-26T21:19:07.306Z,14.00
2023-10-26T21:24:25.729Z,14.02
2023-10-26T21:26:52.914Z,13.90
2023-10-26T21:29:19.944Z,14.01
2023-10-26T21:31:49.340Z,13.93
2023-10-26T21:34:16.378Z,13.97
2023-10-26T21:36:43.697Z,13.93
2023-10-26T21:39:14.074Z,13.88
2023-10-26T21:41:41.254Z,13.86
2023-10-26T21:44:08.297Z,13.92
2023-10-26T21:46:35.576Z,13.96
2023-10-26T21:49:02.634Z,13.99
2023-10-26T21:51:29.620Z,13.98
2023-10-26T21:53:57.139Z,13.91
2023-10-26T21:56:24.306Z,13.92
2023-10-26T21:58:56.689Z,13.53
2023-10-26T22:01:23.943Z,13.19
2023-10-26T22:04:06.418Z,13.19
2023-10-26T22:06:38.367Z,12.97
2023-10-26T22:09:07.193Z,12.90
2023-10-26T22:11:35.574Z,12.78
2023-10-26T22:14:03.184Z,12.82
2023-10-26T22:16:30.242Z,12.98
2023-10-26T22:18:57.314Z,13.21
2023-10-26T22:21:25.498Z,13.26
2023-10-26T22:23:52.435Z,13.35
2023-10-26T22:26:19.390Z,13.43
2023-10-26T22:28:46.721Z,13.53
2023-10-26T22:31:13.681Z,13.52
2023-10-26T22:33:41.346Z,13.52
2023-10-26T22:36:13.710Z,13.59
2023-10-26T22:38:40.912Z,13.44
2023-10-26T22:41:11.480Z,13.56
2023-10-26T22:43:38.931Z,13.58
2023-10-26T22:46:06.766Z,13.60
2023-10-26T22:48:34.002Z,13.58
2023-10-26T22:51:01.369Z,13.58
2023-10-26T22:53:28.333Z,13.55
2023-10-26T22:55:55.595Z,13.58
2023-10-26T22:58:24.288Z,13.61
2023-10-26T23:00:51.364Z,13.70
2023-10-26T23:03:18.368Z,13.75
2023-10-26T23:05:45.239Z,13.69
2023-10-26T23:08:14.513Z,13.64
2023-10-26T23:10:42.488Z,13.59
2023-10-26T23:13:09.748Z,13.62
2023-10-26T23:15:36.748Z,13.65
2023-10-26T23:18:04.045Z,13.69
2023-10-26T23:20:31.062Z,13.68
2023-10-26T23:22:57.965Z,13.63
2023-10-26T23:25:25.045Z,13.63
2023-10-26T23:27:53.745Z,13.55
2023-10-26T23:30:20.711Z,13.63
2023-10-26T23:32:48.292Z,13.61
2023-10-26T23:35:15.265Z,13.62
2023-10-26T23:37:42.204Z,13.71
2023-10-26T23:40:09.745Z,13.63
2023-10-26T23:42:36.687Z,13.65
2023-10-26T23:45:05.720Z,13.61
2023-10-26T23:47:32.600Z,13.68
2023-10-26T23:50:00.457Z,13.39
2023-10-26T23:52:27.412Z,13.14
2023-10-26T23:54:54.607Z,13.22
2023-10-26T23:57:21.792Z,13.24
2023-10-26T23:59:49.819Z,13.34
